createdAt,value
2022-10-17T00:00:58.366Z,100.00
2022-10-17T00:03:27.594Z,100.00
2022-10-17T00:05:55.380Z,100.00
2022-10-17T00:08:23.188Z,100.00
2022-10-17T00:10:58.069Z,100.00
2022-10-17T00:13:26.330Z,100.00
2022-10-17T00:15:54.446Z,100.00
2022-10-17T00:18:22.568Z,100.00
2022-10-17T00:20:51.841Z,100.00
2022-10-17T00:23:19.945Z,100.00
2022-10-17T00:25:47.799Z,100.00
2022-10-17T00:28:17.124Z,100.00
2022-10-17T00:30:44.955Z,100.00
2022-10-17T00:33:12.589Z,100.00
2022-10-17T00:35:40.274Z,100.00
2022-10-17T00:38:09.321Z,100.00
2022-10-17T00:40:37.126Z,100.00
2022-10-17T00:43:05.210Z,100.00
2022-10-17T00:45:33.310Z,100.00
2022-10-17T00:48:06.068Z,100.00
2022-10-17T00:50:36.066Z,100.00
2022-10-17T00:53:06.557Z,100.00
2022-10-17T00:55:39.283Z,100.00
2022-10-17T00:58:07.936Z,100.00
2022-10-17T01:00:36.885Z,100.00
2022-10-17T01:03:04.817Z,100.00
2022-10-17T01:05:32.680Z,100.00
2022-10-17T01:08:00.641Z,100.00
2022-10-17T01:10:34.148Z,100.00
2022-10-17T01:13:12.575Z,100.00
2022-10-17T01:15:49.682Z,100.00
2022-10-17T01:18:32.720Z,100.00
2022-10-17T01:21:34.633Z,100.00
2022-10-17T01:24:32.652Z,100.00
2022-10-17T01:27:27.072Z,100.00
2022-10-17T01:30:13.830Z,100.00
2022-10-17T01:32:48.966Z,100.00
2022-10-17T01:35:21.682Z,100.00
2022-10-17T01:37:54.513Z,100.00
2022-10-17T01:40:27.352Z,100.00
2022-10-17T01:42:59.206Z,100.00
2022-10-17T01:45:32.338Z,100.00
2022-10-17T01:48:07.190Z,100.00
2022-10-17T01:50:42.401Z,100.00
2022-10-17T01:53:15.702Z,100.00
2022-10-17T01:55:46.191Z,100.00
2022-10-17T01:58:19.012Z,100.00
2022-10-17T02:00:49.388Z,100.00
2022-10-17T02:03:22.138Z,100.00
2022-10-17T02:05:49.956Z,100.00
2022-10-17T02:08:27.276Z,100.00
2022-10-17T02:11:01.527Z,100.00
2022-10-17T02:13:42.070Z,100.00
2022-10-17T02:16:17.469Z,100.00
2022-10-17T02:19:09.227Z,100.00
2022-10-17T02:21:44.832Z,100.00
2022-10-17T02:24:21.570Z,100.00
2022-10-17T02:26:57.532Z,100.00
2022-10-17T02:29:30.367Z,100.00
2022-10-17T02:32:04.743Z,100.00
2022-10-17T02:34:39.531Z,100.00
2022-10-17T02:37:09.501Z,100.00
2022-10-17T02:39:40.690Z,100.00
2022-10-17T02:42:12.362Z,100.00
2022-10-17T02:44:44.196Z,100.00
2022-10-17T02:47:17.931Z,100.00
2022-10-17T02:49:51.784Z,100.00
2022-10-17T02:52:27.354Z,100.00
2022-10-17T02:55:00.628Z,100.00
2022-10-17T02:57:31.695Z,100.00
2022-10-17T03:00:02.151Z,100.00
2022-10-17T03:02:30.227Z,100.00
2022-10-17T03:04:59.460Z,100.00
2022-10-17T03:07:27.199Z,100.00
2022-10-17T03:09:54.912Z,100.00
2022-10-17T03:12:22.801Z,100.00
2022-10-17T03:14:50.519Z,100.00
2022-10-17T03:17:18.184Z,100.00
2022-10-17T03:19:45.931Z,100.00
2022-10-17T03:22:14.985Z,100.00
2022-10-17T03:24:42.812Z,100.00
2022-10-17T03:27:10.573Z,100.00
2022-10-17T03:29:38.252Z,100.00
2022-10-17T03:32:06.392Z,100.00
2022-10-17T03:34:34.095Z,100.00
2022-10-17T03:37:01.760Z,100.00
2022-10-17T03:39:30.849Z,100.00
2022-10-17T03:41:58.494Z,100.00
2022-10-17T03:44:26.279Z,100.00
2022-10-17T03:46:53.917Z,100.00
2022-10-17T03:49:21.646Z,100.00
2022-10-17T03:51:49.331Z,100.00
2022-10-17T03:54:16.966Z,100.00
2022-10-17T03:56:46.023Z,100.00
2022-10-17T03:59:14.256Z,100.00
2022-10-17T04:01:42.327Z,100.00
2022-10-17T04:04:10.489Z,100.00
2022-10-17T04:06:38.719Z,100.00
2022-10-17T04:09:07.666Z,100.00
2022-10-17T04:11:35.591Z,100.00
2022-10-17T04:14:04.722Z,100.00
2022-10-17T04:16:38.358Z,100.00
2022-10-17T04:19:06.093Z,100.00
2022-10-17T04:21:33.768Z,100.00
2022-10-17T04:24:02.106Z,100.00
2022-10-17T04:26:29.819Z,100.00
2022-10-17T04:28:57.514Z,100.00
2022-10-17T04:31:26.600Z,100.00
2022-10-17T04:33:54.287Z,100.00
2022-10-17T04:36:22.966Z,100.00
2022-10-17T04:38:50.636Z,100.00
2022-10-17T04:41:19.467Z,100.00
2022-10-17T04:43:50.261Z,100.00
2022-10-17T04:46:19.038Z,100.00
2022-10-17T04:48:48.094Z,100.00
2022-10-17T04:51:18.816Z,100.00
2022-10-17T04:53:48.510Z,100.00
2022-10-17T04:56:18.274Z,100.00
2022-10-17T04:58:46.887Z,100.00
2022-10-17T05:01:17.153Z,100.00
2022-10-17T05:03:45.278Z,100.00
2022-10-17T05:06:16.903Z,100.00
2022-10-17T05:08:45.487Z,100.00
2022-10-17T05:11:21.906Z,100.00
2022-10-17T05:13:53.929Z,100.00
2022-10-17T05:16:22.025Z,100.00
2022-10-17T05:18:52.918Z,100.00
2022-10-17T05:21:24.061Z,100.00
2022-10-17T05:23:52.037Z,100.00
2022-10-17T05:26:19.757Z,100.00
2022-10-17T05:28:47.503Z,100.00
2022-10-17T05:31:15.428Z,100.00
2022-10-17T05:33:43.114Z,100.00
2022-10-17T05:36:11.115Z,100.00
2022-10-17T05:38:40.187Z,100.00
2022-10-17T05:41:07.969Z,100.00
2022-10-17T05:43:36.101Z,100.00
2022-10-17T05:46:05.276Z,100.00
2022-10-17T05:48:33.566Z,100.00
2022-10-17T05:51:02.065Z,100.00
2022-10-17T05:53:33.113Z,100.00
2022-10-17T05:56:03.990Z,100.00
2022-10-17T05:58:45.835Z,100.00
2022-10-17T06:01:16.751Z,100.00
2022-10-17T06:03:44.448Z,100.00
2022-10-17T06:06:14.189Z,100.00
2022-10-17T06:08:42.005Z,100.00
2022-10-17T06:11:11.992Z,100.00
2022-10-17T06:13:40.138Z,100.00
2022-10-17T06:16:08.395Z,100.00
2022-10-17T06:18:36.135Z,100.00
2022-10-17T06:21:05.662Z,100.00
2022-10-17T06:23:33.804Z,100.00
2022-10-17T06:26:02.281Z,100.00
2022-10-17T06:28:31.902Z,100.00
2022-10-17T06:30:59.665Z,100.00
2022-10-17T06:33:27.364Z,100.00
2022-10-17T06:35:56.251Z,100.00
2022-10-17T06:38:24.359Z,100.00
2022-10-17T06:40:53.896Z,100.00
2022-10-17T06:43:27.012Z,100.00
2022-10-17T06:48:29.775Z,100.00
2022-10-17T06:51:00.175Z,100.00
2022-10-17T06:53:29.551Z,100.00
2022-10-17T06:56:01.367Z,100.00
2022-10-17T06:58:29.432Z,100.00
2022-10-17T07:01:01.453Z,100.00
2022-10-17T07:03:29.129Z,100.00
2022-10-17T07:05:57.663Z,100.00
2022-10-17T07:08:28.796Z,100.00
2022-10-17T07:11:09.924Z,100.00
2022-10-17T07:13:39.342Z,100.00
2022-10-17T07:16:09.381Z,100.00
2022-10-17T07:18:37.317Z,100.00
2022-10-17T07:21:05.389Z,100.00
2022-10-17T07:23:36.512Z,100.00
2022-10-17T07:26:07.495Z,100.00
2022-10-17T07:28:35.900Z,100.00
2022-10-17T07:31:09.809Z,100.00
2022-10-17T07:33:37.935Z,100.00
2022-10-17T07:36:06.826Z,100.00
2022-10-17T07:38:35.717Z,100.00
2022-10-17T07:41:05.874Z,100.00
2022-10-17T07:43:34.174Z,100.00
2022-10-17T07:46:02.676Z,100.00
2022-10-17T07:48:31.960Z,100.00
2022-10-17T07:51:02.662Z,100.00
2022-10-17T07:53:30.390Z,100.00
2022-10-17T07:55:58.287Z,100.00
2022-10-17T07:58:26.309Z,100.00
2022-10-17T08:00:54.151Z,100.00
2022-10-17T08:03:21.938Z,100.00
2022-10-17T08:05:50.986Z,100.00
2022-10-17T08:08:18.709Z,100.00
2022-10-17T08:10:46.439Z,100.00
2022-10-17T08:13:14.213Z,100.00
2022-10-17T08:15:41.942Z,100.00
2022-10-17T08:18:09.664Z,100.00
2022-10-17T08:20:38.252Z,100.00
2022-10-17T08:23:07.578Z,100.00
2022-10-17T08:25:35.259Z,100.00
2022-10-17T08:28:03.038Z,100.00
2022-10-17T08:30:31.174Z,100.00
2022-10-17T08:32:58.940Z,100.00
2022-10-17T08:35:26.634Z,100.00
2022-10-17T08:37:54.446Z,100.00
2022-10-17T08:40:27.525Z,100.00
2022-10-17T08:43:14.452Z,100.00
2022-10-17T08:45:48.370Z,100.00
2022-10-17T08:48:18.947Z,100.00
2022-10-17T08:50:50.199Z,100.00
2022-10-17T08:53:25.103Z,100.00
2022-10-17T08:55:55.891Z,100.00
2022-10-17T08:58:24.935Z,100.00
2022-10-17T09:01:03.599Z,100.00
2022-10-17T09:03:45.768Z,100.00
2022-10-17T09:06:20.564Z,100.00
2022-10-17T09:09:08.430Z,100.00
2022-10-17T09:11:49.885Z,100.00
2022-10-17T09:14:31.239Z,100.00
2022-10-17T09:17:11.594Z,100.00
2022-10-17T09:19:44.643Z,100.00
2022-10-17T09:22:18.050Z,100.00
2022-10-17T09:24:53.400Z,100.00
2022-10-17T09:27:26.310Z,100.00
2022-10-17T09:29:59.162Z,100.00
2022-10-17T09:32:27.539Z,100.00
2022-10-17T09:34:55.500Z,100.00
2022-10-17T09:37:32.497Z,100.00
2022-10-17T09:40:00.203Z,100.00
2022-10-17T09:42:30.057Z,100.00
2022-10-17T09:45:14.342Z,100.00
2022-10-17T09:47:47.543Z,100.00
2022-10-17T09:50:23.959Z,100.00
2022-10-17T09:52:52.081Z,100.00
2022-10-17T09:55:23.151Z,100.00
2022-10-17T09:57:58.288Z,100.00
2022-10-17T10:00:28.398Z,100.00
2022-10-17T10:03:11.096Z,100.00
2022-10-17T10:05:38.868Z,100.00
2022-10-17T10:08:14.252Z,100.00
2022-10-17T10:10:43.152Z,100.00
2022-10-17T10:13:21.317Z,100.00
2022-10-17T10:15:50.899Z,100.00
2022-10-17T10:21:08.229Z,100.00
2022-10-17T10:23:39.918Z,100.00
2022-10-17T10:26:21.063Z,100.00
2022-10-17T10:29:20.903Z,100.00
2022-10-17T10:31:50.134Z,100.00
2022-10-17T10:34:22.295Z,100.00
2022-10-17T10:36:54.714Z,100.00
2022-10-17T10:39:32.245Z,100.00
2022-10-17T10:42:00.825Z,100.00
2022-10-17T10:44:32.121Z,97.86
2022-10-17T10:47:16.614Z,90.60
2022-10-17T10:49:45.229Z,100.00
2022-10-17T10:52:19.099Z,95.90
2022-10-17T10:54:56.533Z,96.22
2022-10-17T10:57:30.321Z,84.93
2022-10-17T11:00:09.631Z,88.90
2022-10-17T11:02:45.577Z,71.64
2022-10-17T11:05:21.849Z,70.82
2022-10-17T11:07:56.187Z,68.33
2022-10-17T11:10:31.824Z,69.13
2022-10-17T11:13:06.815Z,80.72
2022-10-17T11:15:41.446Z,91.98
2022-10-17T11:18:14.097Z,85.86
2022-10-17T11:20:51.626Z,92.18
2022-10-17T11:23:24.464Z,92.58
2022-10-17T11:25:54.744Z,88.69
2022-10-17T11:28:24.431Z,100.00
2022-10-17T11:31:02.332Z,100.00
2022-10-17T11:33:42.939Z,93.20
2022-10-17T11:36:12.203Z,100.00
2022-10-17T11:38:45.806Z,100.00
2022-10-17T11:41:18.260Z,100.00
2022-10-17T11:43:53.076Z,96.71
2022-10-17T11:46:24.466Z,96.65
2022-10-17T11:49:02.463Z,95.92
2022-10-17T11:52:03.372Z,91.22
2022-10-17T11:54:34.748Z,85.65
2022-10-17T11:57:28.106Z,77.66
2022-10-17T12:00:07.915Z,72.00
2022-10-17T12:02:46.941Z,64.67
2022-10-17T12:05:25.845Z,59.79
2022-10-17T12:08:00.872Z,57.83
2022-10-17T12:10:40.494Z,54.83
2022-10-17T12:13:47.366Z,49.58
2022-10-17T12:16:38.275Z,48.36
2022-10-17T12:19:25.606Z,47.73
2022-10-17T12:22:03.393Z,45.30
2022-10-17T12:24:41.683Z,43.26
2022-10-17T12:27:42.413Z,47.56
2022-10-17T12:30:22.685Z,52.53
2022-10-17T12:33:21.836Z,47.21
2022-10-17T12:35:52.484Z,53.39
2022-10-17T12:38:23.180Z,53.01
2022-10-17T12:41:06.494Z,53.72
2022-10-17T12:43:45.503Z,56.60
2022-10-17T12:46:13.637Z,65.66
2022-10-17T12:49:38.584Z,70.68
2022-10-17T12:52:48.999Z,80.86
2022-10-17T12:55:19.554Z,87.86
2022-10-17T12:57:56.569Z,95.50
2022-10-17T13:00:32.817Z,100.00
2022-10-17T13:03:07.039Z,100.00
2022-10-17T13:05:37.053Z,100.00
2022-10-17T13:08:07.510Z,100.00
2022-10-17T13:10:43.063Z,100.00
2022-10-17T13:13:16.820Z,100.00
2022-10-17T13:15:48.134Z,100.00
2022-10-17T13:18:21.930Z,100.00
2022-10-17T13:21:01.285Z,100.00
2022-10-17T13:23:33.153Z,100.00
2022-10-17T13:26:08.235Z,100.00
2022-10-17T13:28:39.315Z,100.00
2022-10-17T13:31:07.891Z,100.00
2022-10-17T13:33:39.134Z,100.00
2022-10-17T13:36:09.504Z,100.00
2022-10-17T13:38:40.351Z,100.00
2022-10-17T13:41:35.754Z,100.00
2022-10-17T13:44:08.072Z,100.00
2022-10-17T13:46:38.339Z,100.00
2022-10-17T13:49:23.209Z,100.00
2022-10-17T13:51:55.106Z,100.00
2022-10-17T13:54:41.071Z,100.00
2022-10-17T13:57:21.503Z,100.00
2022-10-17T13:59:52.896Z,100.00
2022-10-17T14:02:22.333Z,100.00
2022-10-17T14:05:18.704Z,100.00
2022-10-17T14:08:10.595Z,100.00
2022-10-17T14:10:41.055Z,100.00
2022-10-17T14:13:21.557Z,100.00
2022-10-17T14:15:49.883Z,100.00
2022-10-17T14:18:21.658Z,100.00
2022-10-17T14:23:42.021Z,100.00
2022-10-17T14:26:13.710Z,100.00
2022-10-17T14:28:45.582Z,100.00
2022-10-17T14:31:26.186Z,100.00
2022-10-17T14:33:55.457Z,100.00
2022-10-17T14:36:35.920Z,100.00
2022-10-17T14:39:07.705Z,100.00
2022-10-17T14:41:43.962Z,100.00
2022-10-17T14:44:21.594Z,100.00
2022-10-17T14:46:55.429Z,100.00
2022-10-17T14:49:35.115Z,100.00
2022-10-17T14:52:28.262Z,100.00
2022-10-17T14:54:57.256Z,100.00
2022-10-17T14:57:29.291Z,100.00
2022-10-17T14:59:58.567Z,100.00
2022-10-17T15:02:27.938Z,100.00
2022-10-17T15:04:56.445Z,100.00
2022-10-17T15:07:24.607Z,100.00
2022-10-17T15:09:54.435Z,100.00
2022-10-17T15:12:24.988Z,100.00
2022-10-17T15:14:53.741Z,100.00
2022-10-17T15:17:27.058Z,100.00
2022-10-17T15:19:55.244Z,100.00
2022-10-17T15:22:23.312Z,100.00
2022-10-17T15:24:51.381Z,100.00
2022-10-17T15:27:21.128Z,100.00
2022-10-17T15:29:49.983Z,100.00
2022-10-17T15:32:17.836Z,100.00
2022-10-17T15:34:47.074Z,100.00
2022-10-17T15:37:18.781Z,100.00
2022-10-17T15:39:52.886Z,100.00
2022-10-17T15:42:22.113Z,100.00
2022-10-17T15:44:50.440Z,100.00
2022-10-17T15:47:25.478Z,100.00
2022-10-17T15:49:55.245Z,100.00
2022-10-17T15:52:23.741Z,100.00
2022-10-17T15:54:51.607Z,100.00
2022-10-17T15:57:21.262Z,100.00
2022-10-17T15:59:50.272Z,100.00
2022-10-17T16:02:19.649Z,100.00
2022-10-17T16:04:49.227Z,100.00
2022-10-17T16:07:19.053Z,100.00
2022-10-17T16:09:47.324Z,100.00
2022-10-17T16:12:18.829Z,100.00
2022-10-17T16:14:46.643Z,100.00
2022-10-17T16:17:16.109Z,100.00
2022-10-17T16:19:44.266Z,100.00
2022-10-17T16:22:22.193Z,100.00
2022-10-17T16:24:49.964Z,100.00
2022-10-17T16:27:17.649Z,100.00
2022-10-17T16:29:45.360Z,100.00
2022-10-17T16:32:13.039Z,100.00
2022-10-17T16:34:40.809Z,100.00
2022-10-17T16:37:08.958Z,100.00
2022-10-17T16:39:38.118Z,100.00
2022-10-17T16:42:05.835Z,100.00
2022-10-17T16:44:33.582Z,100.00
2022-10-17T16:47:01.711Z,100.00
2022-10-17T16:49:29.431Z,100.00
2022-10-17T16:51:57.204Z,100.00
2022-10-17T16:54:24.915Z,100.00
2022-10-17T16:56:53.973Z,100.00
2022-10-17T16:59:21.901Z,100.00
2022-10-17T17:01:49.632Z,100.00
2022-10-17T17:04:18.017Z,100.00
2022-10-17T17:09:18.354Z,100.00
2022-10-17T17:11:46.173Z,100.00
2022-10-17T17:14:15.302Z,100.00
2022-10-17T17:16:43.357Z,100.00
2022-10-17T17:19:15.064Z,100.00
2022-10-17T17:21:47.671Z,100.00
2022-10-17T17:24:15.456Z,100.00
2022-10-17T17:26:43.157Z,100.00
2022-10-17T17:29:12.145Z,100.00
2022-10-17T17:31:41.243Z,100.00
2022-10-17T17:34:09.644Z,100.00
2022-10-17T17:36:39.401Z,100.00
2022-10-17T17:39:16.391Z,100.00
2022-10-17T17:41:45.624Z,100.00
2022-10-17T17:44:16.741Z,100.00
2022-10-17T17:46:46.595Z,100.00
2022-10-17T17:49:14.394Z,100.00
2022-10-17T17:51:46.568Z,100.00
2022-10-17T17:54:15.200Z,100.00
2022-10-17T17:56:43.213Z,100.00
2022-10-17T17:59:12.727Z,100.00
2022-10-17T18:01:40.624Z,100.00
2022-10-17T18:04:10.116Z,100.00
2022-10-17T18:06:38.731Z,100.00
2022-10-17T18:09:09.132Z,100.00
2022-10-17T18:11:38.659Z,100.00
2022-10-17T18:14:08.922Z,100.00
2022-10-17T18:16:38.177Z,100.00
2022-10-17T18:19:07.434Z,100.00
2022-10-17T18:21:37.159Z,100.00
2022-10-17T18:24:05.666Z,100.00
2022-10-17T18:26:34.291Z,100.00
2022-10-17T18:29:02.267Z,100.00
2022-10-17T18:31:35.620Z,100.00
2022-10-17T18:34:05.032Z,100.00
2022-10-17T18:36:34.836Z,100.00
2022-10-17T18:39:04.858Z,100.00
2022-10-17T18:41:33.781Z,100.00
2022-10-17T18:44:02.898Z,100.00
2022-10-17T18:46:35.427Z,100.00
2022-10-17T18:49:03.993Z,100.00
2022-10-17T18:51:31.748Z,100.00
2022-10-17T18:53:59.536Z,100.00
2022-10-17T18:56:28.803Z,100.00
2022-10-17T18:58:57.461Z,100.00
2022-10-17T19:01:27.524Z,100.00
2022-10-17T19:03:57.156Z,100.00
2022-10-17T19:06:27.048Z,100.00
2022-10-17T19:08:54.857Z,100.00
2022-10-17T19:11:24.443Z,100.00
2022-10-17T19:13:54.261Z,100.00
2022-10-17T19:16:24.286Z,100.00
2022-10-17T19:18:53.357Z,100.00
2022-10-17T19:21:22.229Z,100.00
2022-10-17T19:23:52.258Z,100.00
2022-10-17T19:26:20.974Z,100.00
2022-10-17T19:28:52.142Z,100.00
2022-10-17T19:31:26.421Z,100.00
2022-10-17T19:33:55.506Z,100.00
2022-10-17T19:36:28.856Z,100.00
2022-10-17T19:39:00.184Z,100.00
2022-10-17T19:41:28.304Z,100.00
2022-10-17T19:43:56.343Z,100.00
2022-10-17T19:46:28.442Z,100.00
2022-10-17T19:48:55.974Z,100.00
2022-10-17T19:51:25.325Z,100.00
2022-10-17T19:53:54.097Z,100.00
2022-10-17T19:56:22.919Z,100.00
2022-10-17T19:58:52.176Z,100.00
2022-10-17T20:01:22.848Z,100.00
2022-10-17T20:03:52.451Z,100.00
2022-10-17T20:06:26.725Z,100.00
2022-10-17T20:08:58.528Z,100.00
2022-10-17T20:11:28.122Z,100.00
2022-10-17T20:13:57.075Z,100.00
2022-10-17T20:16:26.824Z,100.00
2022-10-17T20:18:58.230Z,100.00
2022-10-17T20:21:28.631Z,100.00
2022-10-17T20:23:56.497Z,100.00
2022-10-17T20:26:37.551Z,100.00
2022-10-17T20:29:11.051Z,100.00
2022-10-17T20:31:40.091Z,100.00
2022-10-17T20:34:12.559Z,100.00
2022-10-17T20:36:40.300Z,100.00
2022-10-17T20:39:08.541Z,100.00
2022-10-17T20:41:36.513Z,100.00
2022-10-17T20:44:04.616Z,100.00
2022-10-17T20:46:37.279Z,100.00
2022-10-17T20:49:07.792Z,100.00
2022-10-17T20:51:37.114Z,100.00
2022-10-17T20:54:05.348Z,100.00
2022-10-17T20:56:34.441Z,100.00
2022-10-17T20:59:04.036Z,100.00
2022-10-17T21:01:33.481Z,100.00
2022-10-17T21:04:21.291Z,100.00
2022-10-17T21:06:51.865Z,100.00
2022-10-17T21:09:20.163Z,100.00
2022-10-17T21:11:51.166Z,100.00
2022-10-17T21:14:19.368Z,100.00
2022-10-17T21:16:47.248Z,100.00
2022-10-17T21:19:15.763Z,100.00
2022-10-17T21:21:45.887Z,100.00
2022-10-17T21:24:17.838Z,100.00
2022-10-17T21:26:46.942Z,100.00
2022-10-17T21:29:15.070Z,100.00
2022-10-17T21:31:44.316Z,100.00
2022-10-17T21:34:13.816Z,100.00
2022-10-17T21:36:44.613Z,100.00
2022-10-17T21:39:13.342Z,100.00
2022-10-17T21:41:43.274Z,100.00
2022-10-17T21:44:14.436Z,100.00
2022-10-17T21:46:42.512Z,100.00
2022-10-17T21:49:11.788Z,100.00
2022-10-17T21:51:39.899Z,100.00
2022-10-17T21:54:08.037Z,100.00
2022-10-17T21:56:36.439Z,100.00
2022-10-17T21:59:06.287Z,100.00
2022-10-17T22:01:37.224Z,100.00
2022-10-17T22:04:07.172Z,100.00
2022-10-17T22:06:40.161Z,100.00
2022-10-17T22:09:13.288Z,100.00
2022-10-17T22:11:41.546Z,100.00
2022-10-17T22:14:13.888Z,100.00
2022-10-17T22:16:42.260Z,100.00
2022-10-17T22:19:12.389Z,100.00
2022-10-17T22:21:40.416Z,100.00
2022-10-17T22:24:11.698Z,100.00
2022-10-17T22:26:40.431Z,100.00
2022-10-17T22:29:10.573Z,100.00
2022-10-17T22:31:39.136Z,100.00
2022-10-17T22:34:07.833Z,100.00
2022-10-17T22:36:36.212Z,100.00
2022-10-17T22:39:05.196Z,100.00
2022-10-17T22:41:33.071Z,100.00
2022-10-17T22:44:00.903Z,100.00
2022-10-17T22:46:30.304Z,100.00
2022-10-17T22:48:58.093Z,100.00
2022-10-17T22:51:26.115Z,100.00
2022-10-17T22:53:53.812Z,100.00
2022-10-17T22:56:22.826Z,100.00
2022-10-17T22:58:51.147Z,100.00
2022-10-17T23:01:21.331Z,100.00
2022-10-17T23:03:51.245Z,100.00
2022-10-17T23:06:19.500Z,100.00
2022-10-17T23:08:47.260Z,100.00
2022-10-17T23:11:15.278Z,100.00
2022-10-17T23:13:43.033Z,100.00
2022-10-17T23:16:11.388Z,100.00
2022-10-17T23:18:39.764Z,100.00
2022-10-17T23:21:09.201Z,100.00
2022-10-17T23:23:37.502Z,100.00
2022-10-17T23:26:07.132Z,100.00
2022-10-17T23:28:35.631Z,100.00
2022-10-17T23:31:12.069Z,100.00
2022-10-17T23:33:41.244Z,100.00
2022-10-17T23:36:11.836Z,100.00
2022-10-17T23:38:40.197Z,100.00
2022-10-17T23:41:08.921Z,100.00
2022-10-17T23:43:36.800Z,100.00
2022-10-17T23:46:06.121Z,100.00
2022-10-17T23:48:34.197Z,100.00
2022-10-17T23:51:02.125Z,100.00
2022-10-17T23:53:31.288Z,100.00
2022-10-17T23:55:59.058Z,100.00
2022-10-17T23:58:26.863Z,100.00
